Time;durP1;ratioP1;P1;durP2;ratioP2;P2;SDS_P1;SDS_P2;PMS_P1;PMS_P2;Temp;Humidity;BMP_temperature;BMP_pressure;BME280_temperature;BME280_humidity;BME280_pressure;Samples;Min_cycle;Max_cycle;Signal;HPM_P1;HPM_P2
2023/03/30 00:00:50;;;;;;;12.48;6.32;;;9.90;84.90;;;;;;5007722;28;20046;-69
2023/03/30 00:03:25;;;;;;;13.90;5.35;;;9.90;84.80;;;;;;5011145;28;20053;-70
2023/03/30 00:06:05;;;;;;;10.43;5.55;;;10.00;84.90;;;;;;5011196;28;20092;-69
2023/03/30 00:08:38;;;;;;;9.35;4.57;;;9.90;85.00;;;;;;4990054;28;20152;-69
2023/03/30 00:11:16;;;;;;;10.80;5.03;;;9.90;85.10;;;;;;5006459;28;20067;-69
2023/03/30 00:13:50;;;;;;;8.27;4.63;;;9.90;85.00;;;;;;5012174;28;20061;-69
2023/03/30 00:16:23;;;;;;;9.90;4.97;;;9.90;85.00;;;;;;5009793;28;20096;-71
2023/03/30 00:18:56;;;;;;;10.85;4.85;;;9.90;85.00;;;;;;5014514;28;20045;-70
2023/03/30 00:21:29;;;;;;;9.07;4.25;;;9.90;85.10;;;;;;5015974;28;20106;-68
2023/03/30 00:24:02;;;;;;;9.10;4.15;;;9.80;85.20;;;;;;5003297;28;20085;-70
2023/03/30 00:27:08;;;;;;;10.45;4.65;;;9.80;85.40;;;;;;4928162;28;20055;-69
2023/03/30 00:29:41;;;;;;;10.00;4.53;;;9.80;85.40;;;;;;4957340;28;20130;-69
2023/03/30 00:32:15;;;;;;;7.70;3.90;;;9.80;85.40;;;;;;5013097;28;20077;-70
2023/03/30 00:34:49;;;;;;;8.43;4.32;;;9.80;85.40;;;;;;4981499;28;20614;-70
2023/03/30 00:37:24;;;;;;;9.00;4.20;;;9.80;85.30;;;;;;4996760;28;20584;-69
2023/03/30 00:39:58;;;;;;;8.07;3.65;;;9.80;85.20;;;;;;5017338;28;20049;-68
2023/03/30 00:42:33;;;;;;;12.73;3.78;;;9.80;85.30;;;;;;4986855;28;20066;-68
2023/03/30 00:45:18;;;;;;;8.60;3.88;;;9.70;85.30;;;;;;5008196;28;20038;-71
2023/03/30 00:47:58;;;;;;;7.88;4.13;;;9.70;85.40;;;;;;4982531;28;20045;-68
2023/03/30 00:50:35;;;;;;;6.72;3.72;;;9.70;85.40;;;;;;4990219;28;20445;-68
2023/03/30 00:53:20;;;;;;;8.05;3.95;;;9.70;85.30;;;;;;4991260;28;20133;-69
2023/03/30 00:55:56;;;;;;;6.75;3.08;;;9.70;85.30;;;;;;4993228;28;20533;-68
2023/03/30 00:58:31;;;;;;;7.85;3.47;;;9.70;85.40;;;;;;5015661;28;20116;-69
2023/03/30 01:01:09;;;;;;;8.10;3.55;;;9.60;85.40;;;;;;5015983;28;20057;-69
2023/03/30 01:03:46;;;;;;;7.45;3.30;;;9.60;85.40;;;;;;4999004;28;20057;-68
2023/03/30 01:06:23;;;;;;;9.27;3.58;;;9.60;85.40;;;;;;4994185;28;20679;-68
2023/03/30 01:08:57;;;;;;;6.55;3.50;;;9.60;85.50;;;;;;5017187;28;20576;-70
2023/03/30 01:11:30;;;;;;;8.63;3.60;;;9.50;85.40;;;;;;5011589;28;20046;-70
2023/03/30 01:14:07;;;;;;;7.20;3.20;;;9.50;85.60;;;;;;5012807;28;20149;-67
2023/03/30 01:16:47;;;;;;;8.23;3.65;;;9.50;85.70;;;;;;5008412;28;20065;-70
2023/03/30 01:19:47;;;;;;;6.75;3.35;;;9.50;85.70;;;;;;5012504;28;20042;-68
2023/03/30 01:22:53;;;;;;;9.77;3.28;;;9.40;85.80;;;;;;5013046;28;20050;-69
2023/03/30 01:25:51;;;;;;;7.47;3.05;;;9.40;85.90;;;;;;4989827;28;20548;-70
2023/03/30 01:28:37;;;;;;;5.72;2.90;;;9.40;85.90;;;;;;5007330;28;20100;-70
2023/03/30 01:31:40;;;;;;;8.13;3.13;;;9.40;85.90;;;;;;5010695;28;20054;-69
2023/03/30 01:34:48;;;;;;;6.22;2.65;;;9.40;86.00;;;;;;4993016;28;20078;-68
2023/03/30 01:37:49;;;;;;;4.68;2.08;;;9.40;85.90;;;;;;5011949;28;20042;-70
2023/03/30 01:40:30;;;;;;;7.25;2.85;;;9.40;85.90;;;;;;5011648;28;20045;-68
2023/03/30 01:43:09;;;;;;;5.60;2.45;;;9.30;86.00;;;;;;5013031;28;20065;-68
2023/03/30 01:45:45;;;;;;;5.88;2.35;;;9.20;86.10;;;;;;5013230;28;20467;-69
2023/03/30 01:48:28;;;;;;;5.25;2.22;;;9.20;86.20;;;;;;5006848;28;20104;-70
2023/03/30 01:51:06;;;;;;;5.72;2.47;;;9.20;86.40;;;;;;5014131;28;20053;-70
2023/03/30 01:53:53;;;;;;;5.30;2.30;;;9.20;86.30;;;;;;5014800;28;20105;-68
2023/03/30 01:56:33;;;;;;;4.35;2.08;;;9.20;86.30;;;;;;5030092;28;20558;-70
2023/03/30 01:59:12;;;;;;;6.00;2.08;;;9.20;86.20;;;;;;5034347;28;20500;-69
2023/03/30 02:01:49;;;;;;;4.55;2.33;;;9.20;86.20;;;;;;5029567;28;20132;-70
2023/03/30 02:04:24;;;;;;;5.60;2.38;;;9.20;86.30;;;;;;5031486;28;20041;-70
2023/03/30 02:07:02;;;;;;;5.60;2.28;;;9.20;86.40;;;;;;5012067;28;20052;-68
2023/03/30 02:09:53;;;;;;;6.20;2.17;;;9.20;86.30;;;;;;5004249;28;20126;-70
2023/03/30 02:12:36;;;;;;;6.45;2.40;;;9.30;86.30;;;;;;5027339;28;20034;-70
2023/03/30 02:15:12;;;;;;;5.85;2.38;;;9.20;86.50;;;;;;5009200;28;20643;-69
2023/03/30 02:17:47;;;;;;;6.57;2.80;;;9.20;86.60;;;;;;5032960;28;20053;-69
2023/03/30 02:20:20;;;;;;;5.07;2.88;;;9.20;86.70;;;;;;5031346;28;20544;-70
2023/03/30 02:22:54;;;;;;;4.93;2.67;;;9.20;86.60;;;;;;5029376;28;20137;-69
2023/03/30 02:25:28;;;;;;;4.80;2.45;;;9.30;86.60;;;;;;5010998;28;20058;-69
2023/03/30 02:28:03;;;;;;;6.07;2.92;;;9.30;86.50;;;;;;5012642;28;20641;-70
2023/03/30 02:30:41;;;;;;;7.57;2.88;;;9.30;86.60;;;;;;5008269;28;20048;-68
2023/03/30 02:33:23;;;;;;;11.18;4.38;;;9.30;86.50;;;;;;5026370;28;20128;-68
2023/03/30 02:36:12;;;;;;;7.60;3.28;;;9.20;86.80;;;;;;5030055;28;20050;-68
2023/03/30 02:39:03;;;;;;;7.80;3.08;;;9.20;87.00;;;;;;5029645;28;20057;-69
2023/03/30 02:41:53;;;;;;;6.93;2.90;;;9.20;87.10;;;;;;5013821;28;20041;-69
2023/03/30 02:44:34;;;;;;;7.22;2.75;;;9.20;87.20;;;;;;5031566;28;20552;-69
2023/03/30 02:47:12;;;;;;;6.20;2.70;;;9.20;87.20;;;;;;5003378;28;20045;-69
2023/03/30 02:49:57;;;;;;;7.38;2.83;;;9.20;87.30;;;;;;5016114;28;20040;-69
2023/03/30 02:52:46;;;;;;;5.80;3.00;;;9.20;87.30;;;;;;5007904;28;20124;-69
2023/03/30 02:55:24;;;;;;;6.07;2.58;;;9.20;87.40;;;;;;5008010;28;20624;-69
2023/03/30 02:58:26;;;;;;;6.80;2.53;;;9.30;87.40;;;;;;5002841;28;20194;-68
2023/03/30 03:01:10;;;;;;;5.80;2.70;;;9.20;87.50;;;;;;5011942;28;20073;-68
2023/03/30 03:04:04;;;;;;;5.00;2.40;;;9.30;87.00;;;;;;4994138;28;20058;-69
2023/03/30 03:06:47;;;;;;;6.07;2.70;;;9.40;87.20;;;;;;4995025;28;20483;-68
2023/03/30 03:09:23;;;;;;;4.82;2.17;;;9.30;87.30;;;;;;5011994;28;20060;-69
2023/03/30 03:11:58;;;;;;;4.95;2.70;;;9.30;87.20;;;;;;4984653;28;20045;-68
2023/03/30 03:14:37;;;;;;;6.65;2.40;;;9.30;87.30;;;;;;4998813;28;20453;-68
2023/03/30 03:17:17;;;;;;;7.18;2.47;;;9.30;87.30;;;;;;5007651;28;20053;-69
2023/03/30 03:19:51;;;;;;;8.98;2.40;;;9.20;87.30;;;;;;4998238;28;20133;-68
2023/03/30 03:22:25;;;;;;;5.18;2.30;;;9.30;87.30;;;;;;4993548;28;20045;-69
2023/03/30 03:24:52;;;;;;;5.85;2.90;;;9.30;87.30;;;;;;4996210;28;20061;-68
2023/03/30 03:27:34;;;;;;;4.68;2.30;;;9.20;87.40;;;;;;4994242;28;20396;-69
2023/03/30 03:30:14;;;;;;;6.05;2.28;;;9.20;87.50;;;;;;5000124;28;20053;-70
2023/03/30 03:32:59;;;;;;;7.30;2.53;;;9.20;87.40;;;;;;4995900;28;20119;-69
2023/03/30 03:35:33;;;;;;;5.32;2.30;;;9.30;87.40;;;;;;4997754;28;20104;-67
2023/03/30 03:38:08;;;;;;;5.60;2.38;;;9.30;87.40;;;;;;5012619;28;20057;-69
2023/03/30 03:40:42;;;;;;;5.05;2.05;;;9.20;87.50;;;;;;4992997;28;20056;-69
2023/03/30 03:43:15;;;;;;;5.75;2.08;;;9.30;87.60;;;;;;5015477;28;20132;-68
2023/03/30 03:45:50;;;;;;;6.00;2.20;;;9.20;87.70;;;;;;4994500;28;20398;-69
2023/03/30 03:48:25;;;;;;;7.53;2.28;;;9.20;87.80;;;;;;5013630;28;20160;-68
2023/03/30 03:50:59;;;;;;;8.25;2.42;;;9.30;87.40;;;;;;5013401;28;20049;-68
2023/03/30 03:53:41;;;;;;;4.97;2.10;;;9.30;87.70;;;;;;5012539;28;20049;-69
2023/03/30 03:56:14;;;;;;;5.03;2.40;;;9.20;87.80;;;;;;5021707;28;20056;-69
2023/03/30 03:58:41;;;;;;;4.47;2.13;;;9.20;87.60;;;;;;5032800;28;20639;-68
2023/03/30 04:01:15;;;;;;;5.13;2.00;;;9.20;87.70;;;;;;5019597;28;20037;-69
2023/03/30 04:03:43;;;;;;;5.05;2.20;;;9.30;87.60;;;;;;5020939;28;20068;-69
2023/03/30 04:06:16;;;;;;;5.78;2.42;;;9.30;87.80;;;;;;5015060;28;20091;-68
2023/03/30 04:08:50;;;;;;;5.45;2.30;;;9.30;87.30;;;;;;5036338;28;20052;-69
2023/03/30 04:11:46;;;;;;;5.35;2.10;;;9.30;87.60;;;;;;5031760;28;20191;-68
2023/03/30 04:14:33;;;;;;;7.43;2.17;;;9.30;87.60;;;;;;5020298;28;20041;-68
2023/03/30 04:17:22;;;;;;;5.70;2.20;;;9.30;87.80;;;;;;5026563;28;20945;-67
2023/03/30 04:20:18;;;;;;;5.60;2.03;;;9.30;88.10;;;;;;5000690;28;20452;-67
2023/03/30 04:23:20;;;;;;;5.13;2.08;;;9.30;88.10;;;;;;5019202;28;20366;-68
2023/03/30 04:26:23;;;;;;;5.00;2.08;;;9.30;88.20;;;;;;4959310;28;20051;-68
2023/03/30 04:29:21;;;;;;;7.97;2.67;;;9.30;87.90;;;;;;5014324;28;20086;-67
2023/03/30 04:32:07;;;;;;;4.80;2.42;;;9.30;88.40;;;;;;5035626;28;20057;-68
2023/03/30 04:34:48;;;;;;;5.85;2.42;;;9.20;88.30;;;;;;5045962;28;20075;-69
2023/03/30 04:37:51;;;;;;;7.13;2.03;;;9.30;88.50;;;;;;5002858;28;20075;-68
2023/03/30 04:40:49;;;;;;;4.97;2.05;;;9.20;88.50;;;;;;5021349;28;20122;-69
2023/03/30 04:43:43;;;;;;;6.40;2.20;;;9.30;88.10;;;;;;5016993;28;20204;-68
2023/03/30 04:46:28;;;;;;;5.90;2.63;;;9.30;88.20;;;;;;5024562;28;20492;-68
2023/03/30 04:49:01;;;;;;;5.82;2.55;;;9.30;88.80;;;;;;5032269;28;20407;-66
2023/03/30 04:52:06;;;;;;;5.40;2.35;;;9.30;88.40;;;;;;5037103;28;20052;-67
2023/03/30 04:55:07;;;;;;;5.63;2.80;;;9.30;88.70;;;;;;5014346;28;20405;-68
2023/03/30 04:58:05;;;;;;;5.67;2.27;;;9.40;88.60;;;;;;5012212;28;20132;-68
2023/03/30 05:00:52;;;;;;;6.05;2.42;;;9.40;88.50;;;;;;4990967;28;20812;-69
2023/03/30 05:03:44;;;;;;;7.97;2.63;;;9.30;88.20;;;;;;4996317;28;20057;-68
2023/03/30 05:06:41;;;;;;;4.10;2.00;;;9.40;88.50;;;;;;4973557;28;20547;-66
2023/03/30 05:09:27;;;;;;;7.75;2.83;;;9.40;88.50;;;;;;5011859;28;20051;-66
2023/03/30 05:12:21;;;;;;;6.40;2.22;;;9.40;88.30;;;;;;5012861;28;20045;-67
2023/03/30 05:15:09;;;;;;;9.25;2.88;;;9.40;88.40;;;;;;4997420;28;20493;-67
2023/03/30 05:17:43;;;;;;;5.32;2.70;;;9.40;88.20;;;;;;5017595;28;20045;-68
2023/03/30 05:20:22;;;;;;;7.25;3.50;;;9.40;88.30;;;;;;5009329;28;20056;-68
2023/03/30 05:23:20;;;;;;;6.20;2.80;;;9.40;88.50;;;;;;5009884;28;20081;-67
2023/03/30 05:26:12;;;;;;;8.13;3.13;;;9.40;88.80;;;;;;5013203;28;20471;-67
2023/03/30 05:28:55;;;;;;;5.95;2.50;;;9.40;88.80;;;;;;4996259;28;20042;-67
2023/03/30 05:31:52;;;;;;;8.32;2.85;;;9.40;88.80;;;;;;4976327;28;20050;-67
2023/03/30 05:34:51;;;;;;;8.70;2.53;;;9.50;88.60;;;;;;5013277;28;20488;-68
2023/03/30 05:37:57;;;;;;;6.78;2.70;;;9.50;88.50;;;;;;4960717;28;20045;-68
2023/03/30 05:40:46;;;;;;;8.93;2.85;;;9.50;89.00;;;;;;5009864;28;20503;-68
2023/03/30 05:43:38;;;;;;;6.35;2.67;;;9.40;88.90;;;;;;5017250;28;20068;-68
2023/03/30 05:46:20;;;;;;;6.32;2.55;;;9.50;88.80;;;;;;5009314;28;20058;-69
2023/03/30 05:49:30;;;;;;;6.53;2.60;;;9.50;89.10;;;;;;4993992;28;20093;-68
2023/03/30 05:52:20;;;;;;;7.50;2.60;;;9.50;88.90;;;;;;5013495;28;20485;-67
2023/03/30 05:55:09;;;;;;;9.15;2.58;;;9.40;89.20;;;;;;5011259;28;20920;-68
2023/03/30 05:57:50;;;;;;;8.45;3.20;;;9.50;89.30;;;;;;4994378;28;20168;-68
2023/03/30 06:00:43;;;;;;;8.93;2.88;;;9.40;89.30;;;;;;5013408;28;20061;-69
2023/03/30 06:03:30;;;;;;;8.32;3.03;;;9.50;89.30;;;;;;5011852;28;20502;-68
2023/03/30 06:06:04;;;;;;;7.63;2.70;;;9.50;89.10;;;;;;4996152;28;20041;-68
2023/03/30 06:08:39;;;;;;;6.47;2.88;;;9.50;89.20;;;;;;5009837;28;20165;-67
2023/03/30 06:11:17;;;;;;;8.25;2.70;;;9.50;89.30;;;;;;5009811;28;20050;-68
2023/03/30 06:14:02;;;;;;;12.27;3.70;;;9.50;89.40;;;;;;5010089;28;20120;-67
2023/03/30 06:16:36;;;;;;;7.95;2.80;;;9.50;89.50;;;;;;4997088;28;20046;-67
2023/03/30 06:19:14;;;;;;;7.78;3.20;;;9.50;89.30;;;;;;5008278;28;20493;-68
2023/03/30 06:21:47;;;;;;;11.32;3.05;;;9.50;89.20;;;;;;4994857;28;20042;-68
2023/03/30 06:24:36;;;;;;;10.13;2.90;;;9.60;89.20;;;;;;5004721;28;20053;-67
2023/03/30 06:27:10;;;;;;;7.78;2.85;;;9.50;89.70;;;;;;5013998;28;20053;-67
2023/03/30 06:29:44;;;;;;;6.07;2.67;;;9.60;89.40;;;;;;5010995;28;20046;-68
2023/03/30 06:32:10;;;;;;;8.60;2.88;;;9.50;89.60;;;;;;4992285;28;20041;-67
2023/03/30 06:34:48;;;;;;;7.57;3.25;;;9.50;89.50;;;;;;5009041;28;20064;-67
2023/03/30 06:37:24;;;;;;;10.45;3.33;;;9.50;89.50;;;;;;4991005;28;20053;-67
2023/03/30 06:39:58;;;;;;;8.07;2.63;;;9.60;89.70;;;;;;5014883;28;20049;-67
2023/03/30 06:42:32;;;;;;;7.78;3.13;;;9.60;89.70;;;;;;4989523;28;20515;-69
2023/03/30 06:45:27;;;;;;;10.73;3.13;;;9.60;89.60;;;;;;4993666;28;20047;-68
2023/03/30 06:48:01;;;;;;;7.95;3.28;;;9.60;89.60;;;;;;5010777;28;20088;-67
2023/03/30 06:50:39;;;;;;;11.63;3.40;;;9.60;89.10;;;;;;4995610;28;20073;-68
2023/03/30 06:53:18;;;;;;;7.68;3.03;;;9.60;89.40;;;;;;5005549;28;20057;-68
2023/03/30 06:55:59;;;;;;;7.22;3.15;;;9.60;89.40;;;;;;5012512;28;20102;-69
2023/03/30 06:58:37;;;;;;;10.85;3.55;;;9.60;89.60;;;;;;5024923;28;20054;-68
2023/03/30 07:01:12;;;;;;;8.77;3.28;;;9.60;89.50;;;;;;5012850;28;20132;-68
2023/03/30 07:03:46;;;;;;;8.23;3.13;;;9.60;90.00;;;;;;5032560;28;20052;-68
2023/03/30 07:06:27;;;;;;;9.70;3.35;;;9.60;89.40;;;;;;5011803;28;20542;-67
2023/03/30 07:09:01;;;;;;;9.07;3.00;;;9.70;89.50;;;;;;5030598;28;20589;-67
2023/03/30 07:11:35;;;;;;;9.18;3.00;;;9.70;89.70;;;;;;5036986;28;20049;-70
2023/03/30 07:14:11;;;;;;;10.48;3.30;;;9.70;89.30;;;;;;5052945;28;20033;-69
2023/03/30 07:16:47;;;;;;;10.52;3.80;;;9.70;89.90;;;;;;5025089;28;20115;-68
2023/03/30 07:19:20;;;;;;;10.10;3.95;;;9.70;89.80;;;;;;5000742;28;20041;-68
2023/03/30 07:21:55;;;;;;;11.18;3.55;;;9.70;89.70;;;;;;5015247;28;20141;-69
2023/03/30 07:24:30;;;;;;;7.22;3.33;;;9.70;90.10;;;;;;4997862;28;20053;-68
2023/03/30 07:27:03;;;;;;;11.52;3.50;;;9.70;89.60;;;;;;5030208;28;20042;-67
2023/03/30 07:29:38;;;;;;;5.93;3.03;;;9.70;90.00;;;;;;5017054;28;20121;-68
2023/03/30 07:32:12;;;;;;;7.72;2.97;;;9.70;89.90;;;;;;5031386;28;20056;-67
2023/03/30 07:34:46;;;;;;;8.65;3.10;;;9.70;89.80;;;;;;5033019;28;20053;-66
2023/03/30 07:37:22;;;;;;;5.60;2.70;;;9.80;90.80;;;;;;5034539;28;20041;-68
2023/03/30 07:39:56;;;;;;;8.73;3.63;;;9.90;90.80;;;;;;5034070;28;20407;-67
2023/03/30 07:42:30;;;;;;;8.13;3.65;;;10.00;90.70;;;;;;5032805;28;20668;-67
2023/03/30 07:45:04;;;;;;;11.85;3.80;;;10.00;90.70;;;;;;5036408;28;20044;-67
2023/03/30 07:47:38;;;;;;;7.40;3.63;;;10.00;90.80;;;;;;5016975;28;20072;-68
2023/03/30 07:50:11;;;;;;;9.57;2.70;;;10.10;91.50;;;;;;5017419;28;20049;-68
2023/03/30 07:52:53;;;;;;;10.38;2.72;;;10.20;91.80;;;;;;5012240;28;20060;-66
2023/03/30 07:55:33;;;;;;;9.18;2.83;;;10.40;92.20;;;;;;4983828;28;20045;-68
2023/03/30 07:58:16;;;;;;;8.63;2.55;;;10.50;91.90;;;;;;5013419;28;20625;-68
2023/03/30 08:00:50;;;;;;;7.70;2.50;;;10.60;92.00;;;;;;5013779;28;20057;-68
2023/03/30 08:03:48;;;;;;;8.25;2.47;;;10.70;91.90;;;;;;5016071;28;20045;-69
2023/03/30 08:06:21;;;;;;;9.10;2.30;;;10.80;92.20;;;;;;4999284;28;20050;-68
2023/03/30 08:09:00;;;;;;;8.30;2.30;;;10.90;91.90;;;;;;4983041;28;20089;-68
2023/03/30 08:11:34;;;;;;;9.35;2.95;;;11.00;92.00;;;;;;4998210;28;20034;-68
2023/03/30 08:14:08;;;;;;;6.80;2.75;;;11.10;92.00;;;;;;5018141;28;20053;-68
2023/03/30 08:16:41;;;;;;;7.28;2.15;;;11.30;91.90;;;;;;5018453;28;20042;-68
2023/03/30 08:19:15;;;;;;;7.90;2.30;;;11.40;91.50;;;;;;5010509;28;20153;-67
2023/03/30 08:21:49;;;;;;;6.57;2.28;;;11.60;91.70;;;;;;5015900;28;20493;-68
2023/03/30 08:24:24;;;;;;;7.13;2.30;;;11.60;91.30;;;;;;5013831;28;20172;-69
2023/03/30 08:26:58;;;;;;;5.07;2.10;;;11.60;91.50;;;;;;5013835;28;20580;-68
2023/03/30 08:29:32;;;;;;;6.78;3.15;;;11.60;91.20;;;;;;5013250;28;20052;-68
2023/03/30 08:32:06;;;;;;;8.18;2.30;;;11.70;91.30;;;;;;5015772;28;20404;-68
2023/03/30 08:34:40;;;;;;;8.23;2.30;;;11.70;91.30;;;;;;5015272;28;20080;-67
2023/03/30 08:37:13;;;;;;;7.15;2.42;;;11.70;91.40;;;;;;5012762;28;20078;-67
2023/03/30 08:39:47;;;;;;;11.43;3.30;;;11.70;91.50;;;;;;5018292;28;20547;-67
2023/03/30 08:42:51;;;;;;;7.85;2.60;;;11.60;91.60;;;;;;5010586;28;20132;-67
2023/03/30 08:45:24;;;;;;;8.70;2.50;;;11.60;91.60;;;;;;5011963;28;20505;-68
2023/03/30 08:47:53;;;;;;;8.18;2.42;;;11.70;91.60;;;;;;5012529;28;20046;-69
2023/03/30 08:50:31;;;;;;;6.25;2.05;;;11.70;91.30;;;;;;5011270;28;20048;-67
2023/03/30 08:53:07;;;;;;;8.18;2.45;;;11.70;91.40;;;;;;5015318;28;20053;-68
2023/03/30 08:55:46;;;;;;;6.85;2.50;;;11.80;91.20;;;;;;5015624;28;20053;-67
2023/03/30 08:58:35;;;;;;;6.88;2.13;;;11.90;91.00;;;;;;5011039;28;20394;-68
2023/03/30 09:01:18;;;;;;;8.95;2.72;;;11.90;91.10;;;;;;5009362;28;20471;-66
2023/03/30 09:04:15;;;;;;;8.27;2.35;;;12.00;91.10;;;;;;5014876;28;20473;-69
2023/03/30 09:06:51;;;;;;;7.88;2.42;;;12.00;91.00;;;;;;5012413;28;20054;-68
2023/03/30 09:09:28;;;;;;;8.60;3.13;;;12.10;90.70;;;;;;5008933;28;20497;-67
2023/03/30 09:12:08;;;;;;;5.18;2.13;;;12.20;90.40;;;;;;5010394;28;20077;-67
2023/03/30 09:14:46;;;;;;;8.38;2.40;;;12.40;90.00;;;;;;5011149;28;20069;-68
2023/03/30 09:17:22;;;;;;;7.55;2.25;;;12.60;89.70;;;;;;5014429;28;20073;-68
2023/03/30 09:20:00;;;;;;;6.57;2.25;;;12.70;89.80;;;;;;5010397;28;20053;-68
2023/03/30 09:22:38;;;;;;;6.03;2.40;;;12.80;89.80;;;;;;5012804;28;20536;-68
2023/03/30 09:25:17;;;;;;;6.68;2.30;;;12.90;89.40;;;;;;5011658;28;20515;-69
2023/03/30 09:28:00;;;;;;;6.00;2.40;;;13.00;89.30;;;;;;5014087;28;20057;-68
2023/03/30 09:30:39;;;;;;;4.85;2.28;;;13.20;89.20;;;;;;5014390;28;20049;-69
2023/03/30 09:33:26;;;;;;;6.30;2.20;;;13.20;88.80;;;;;;5011880;28;20068;-68
2023/03/30 09:36:10;;;;;;;7.47;2.60;;;13.20;88.90;;;;;;5013272;28;20744;-67
2023/03/30 09:38:43;;;;;;;6.63;2.30;;;13.20;88.70;;;;;;5012946;28;20507;-68
2023/03/30 09:41:53;;;;;;;8.85;2.22;;;13.20;88.50;;;;;;5014943;28;20045;-69
2023/03/30 09:44:37;;;;;;;5.60;2.05;;;13.20;88.40;;;;;;5013236;28;20104;-68
2023/03/30 09:47:30;;;;;;;6.10;2.00;;;13.30;88.50;;;;;;5014412;28;20053;-70
2023/03/30 09:50:10;;;;;;;5.25;2.22;;;13.40;88.10;;;;;;5003737;28;20109;-68
2023/03/30 09:53:08;;;;;;;8.30;2.30;;;13.60;88.20;;;;;;5016613;28;20041;-68
2023/03/30 09:55:58;;;;;;;4.63;2.03;;;13.70;88.00;;;;;;5015456;28;20500;-69
2023/03/30 09:58:33;;;;;;;8.77;2.30;;;13.80;87.80;;;;;;5002673;28;20473;-68
2023/03/30 10:01:11;;;;;;;6.55;2.10;;;14.00;87.70;;;;;;5013948;28;20136;-69
2023/03/30 10:03:46;;;;;;;5.45;2.40;;;14.00;87.50;;;;;;5009637;28;20049;-69
2023/03/30 10:06:20;;;;;;;6.25;2.03;;;14.00;87.50;;;;;;5010469;28;20072;-68
2023/03/30 10:08:55;;;;;;;6.55;2.30;;;13.90;87.30;;;;;;5010990;28;20046;-69
2023/03/30 10:11:36;;;;;;;8.20;2.58;;;14.00;87.00;;;;;;5014440;28;20052;-68
2023/03/30 10:14:31;;;;;;;5.85;2.53;;;14.00;86.80;;;;;;5015195;28;20064;-67
2023/03/30 10:17:32;;;;;;;6.53;2.47;;;14.00;87.10;;;;;;5010209;28;20117;-68
2023/03/30 10:20:24;;;;;;;5.35;2.70;;;14.00;86.80;;;;;;5012215;28;20094;-69
2023/03/30 10:23:13;;;;;;;7.03;2.33;;;14.00;86.60;;;;;;5013501;28;20052;-68
2023/03/30 10:25:49;;;;;;;5.50;2.20;;;14.00;86.90;;;;;;5012751;28;20049;-69
2023/03/30 10:28:30;;;;;;;7.90;2.17;;;14.00;86.70;;;;;;5009949;28;20054;-69
2023/03/30 10:31:07;;;;;;;6.70;2.30;;;14.00;86.10;;;;;;5011201;28;20096;-68
2023/03/30 10:34:01;;;;;;;4.45;2.17;;;14.10;86.30;;;;;;5011932;28;20120;-68
2023/03/30 10:36:40;;;;;;;5.55;2.25;;;14.10;86.20;;;;;;5000906;28;20046;-69
2023/03/30 10:39:37;;;;;;;8.95;2.20;;;14.10;86.00;;;;;;4990752;28;20093;-70
2023/03/30 10:42:20;;;;;;;4.55;1.83;;;14.20;85.80;;;;;;5011811;28;20119;-67
2023/03/30 10:45:07;;;;;;;5.35;2.40;;;14.20;85.90;;;;;;4994535;28;20095;-71
2023/03/30 10:48:08;;;;;;;9.45;2.28;;;14.20;85.40;;;;;;5011742;28;20049;-69
2023/03/30 10:50:49;;;;;;;5.85;2.00;;;14.20;85.20;;;;;;5009976;28;20058;-68
2023/03/30 10:53:41;;;;;;;4.30;2.03;;;14.10;85.50;;;;;;5010191;28;20251;-67
2023/03/30 10:56:31;;;;;;;5.38;2.13;;;14.00;85.90;;;;;;5008488;28;20045;-68
2023/03/30 10:59:26;;;;;;;6.05;2.20;;;14.00;85.80;;;;;;5007176;28;20137;-70
2023/03/30 11:02:21;;;;;;;6.25;2.78;;;14.00;85.50;;;;;;5008607;28;20042;-70
2023/03/30 11:05:01;;;;;;;6.22;2.38;;;14.10;85.80;;;;;;5010722;28;20127;-68
2023/03/30 11:07:41;;;;;;;6.43;2.13;;;14.10;85.50;;;;;;5009429;28;20049;-69
2023/03/30 11:10:19;;;;;;;5.32;1.95;;;14.30;85.00;;;;;;5025682;28;20050;-68
2023/03/30 11:12:57;;;;;;;4.75;2.08;;;14.30;84.60;;;;;;5013449;28;20042;-69
2023/03/30 11:15:37;;;;;;;6.78;1.90;;;14.40;84.30;;;;;;5014066;28;20046;-68
2023/03/30 11:18:20;;;;;;;5.72;1.95;;;14.50;83.90;;;;;;5013452;28;20594;-69
2023/03/30 11:21:00;;;;;;;4.70;2.13;;;14.60;83.60;;;;;;5016769;28;20413;-69
2023/03/30 11:23:42;;;;;;;5.13;2.00;;;14.70;83.30;;;;;;5013988;28;20045;-68
2023/03/30 11:26:20;;;;;;;4.28;1.65;;;14.80;82.90;;;;;;5008116;28;20104;-69
2023/03/30 11:29:00;;;;;;;5.70;2.00;;;14.80;82.50;;;;;;5016355;28;20046;-69
2023/03/30 11:31:46;;;;;;;6.03;1.98;;;14.70;82.50;;;;;;5011328;28;20042;-68
2023/03/30 11:34:30;;;;;;;8.60;2.30;;;14.70;82.30;;;;;;5013520;28;20053;-68
2023/03/30 11:37:14;;;;;;;7.50;2.13;;;14.80;81.30;;;;;;5012202;28;20141;-69
2023/03/30 11:39:56;;;;;;;6.80;1.80;;;14.80;81.70;;;;;;5014410;28;20542;-69
2023/03/30 11:42:31;;;;;;;6.32;1.98;;;14.80;80.80;;;;;;5012001;28;20053;-72
2023/03/30 11:45:16;;;;;;;6.53;2.00;;;14.90;80.80;;;;;;5019081;28;20050;-69
2023/03/30 11:48:03;;;;;;;5.82;1.90;;;14.90;80.30;;;;;;5015889;28;20538;-69
2023/03/30 11:50:52;;;;;;;6.97;2.10;;;14.90;80.40;;;;;;5012363;28;20068;-68
2023/03/30 11:53:34;;;;;;;5.18;1.60;;;15.10;79.90;;;;;;5012655;28;20064;-68
2023/03/30 11:56:19;;;;;;;4.88;1.70;;;15.20;79.30;;;;;;5013956;28;20400;-68
2023/03/30 11:59:03;;;;;;;7.53;2.17;;;15.40;78.80;;;;;;5011294;28;20179;-68
2023/03/30 12:01:55;;;;;;;7.53;2.35;;;15.60;78.70;;;;;;5012666;28;20115;-68
2023/03/30 12:04:34;;;;;;;7.22;2.70;;;15.60;77.90;;;;;;5019367;28;20045;-68
2023/03/30 12:07:16;;;;;;;6.45;2.08;;;15.60;77.10;;;;;;5016113;28;20054;-68
2023/03/30 12:09:55;;;;;;;4.57;1.80;;;15.60;76.50;;;;;;5017610;28;20042;-68
2023/03/30 12:12:35;;;;;;;5.22;2.28;;;15.70;76.70;;;;;;5013703;28;20076;-68
2023/03/30 12:15:22;;;;;;;5.13;2.22;;;15.70;76.40;;;;;;5018283;28;20053;-68
2023/03/30 12:18:00;;;;;;;9.13;2.15;;;15.70;76.30;;;;;;5016910;28;20049;-69
2023/03/30 12:20:41;;;;;;;4.90;1.73;;;15.90;76.00;;;;;;5010480;28;20111;-68
2023/03/30 12:23:25;;;;;;;6.72;2.00;;;16.10;75.90;;;;;;5015404;28;20602;-68
2023/03/30 12:26:10;;;;;;;7.22;2.20;;;16.20;75.40;;;;;;5012614;28;20049;-68
2023/03/30 12:28:48;;;;;;;5.20;1.60;;;16.10;74.60;;;;;;5012846;28;20050;-68
2023/03/30 12:31:22;;;;;;;7.38;1.92;;;16.00;74.70;;;;;;4996575;28;20041;-69
2023/03/30 12:34:06;;;;;;;5.10;1.50;;;15.90;74.50;;;;;;5012926;28;20065;-68
2023/03/30 12:36:41;;;;;;;7.65;1.88;;;15.80;74.00;;;;;;5015624;28;20053;-69
2023/03/30 12:39:24;;;;;;;6.05;1.55;;;15.70;74.30;;;;;;5010623;28;20057;-68
2023/03/30 12:42:05;;;;;;;5.75;1.80;;;15.60;74.50;;;;;;5014026;28;20058;-69
2023/03/30 12:44:47;;;;;;;3.67;1.48;;;15.60;74.70;;;;;;5010887;28;20048;-68
2023/03/30 12:47:39;;;;;;;4.43;1.40;;;15.70;73.60;;;;;;5015636;28;20057;-69
2023/03/30 12:50:25;;;;;;;4.22;1.42;;;16.00;73.40;;;;;;5010142;28;20050;-69
2023/03/30 12:53:14;;;;;;;4.35;1.58;;;16.10;72.60;;;;;;5015789;28;20137;-69
2023/03/30 12:55:59;;;;;;;;;;;16.20;71.90;;;;;;4982534;28;20041;-70
2023/03/30 12:58:56;;;;;;;3.58;1.40;;;16.30;72.10;;;;;;5014783;28;19925;-66
2023/03/30 13:01:44;;;;;;;4.10;1.23;;;16.30;71.70;;;;;;5015061;28;20049;-69
2023/03/30 13:04:22;;;;;;;4.68;1.27;;;16.10;71.60;;;;;;5012363;28;20045;-67
2023/03/30 13:06:58;;;;;;;3.47;1.35;;;15.90;71.20;;;;;;5012387;28;20042;-69
2023/03/30 13:09:52;;;;;;;1.92;0.63;;;15.60;69.50;;;;;;5008638;28;20046;-66
2023/03/30 13:12:37;;;;;;;2.05;0.40;;;15.10;69.90;;;;;;5014046;28;20164;-69
2023/03/30 13:15:33;;;;;;;1.75;0.35;;;14.70;70.60;;;;;;5011931;28;20046;-68
2023/03/30 13:18:46;;;;;;;1.45;0.30;;;14.50;71.40;;;;;;4991557;28;20053;-69
2023/03/30 13:21:23;;;;;;;1.08;0.40;;;14.40;71.60;;;;;;5001229;28;20073;-68
2023/03/30 13:24:31;;;;;;;0.57;0.22;;;14.30;72.00;;;;;;5009137;28;20069;-68
2023/03/30 13:27:22;;;;;;;0.77;0.22;;;14.20;72.40;;;;;;5012600;28;20054;-69
2023/03/30 13:29:59;;;;;;;0.95;0.30;;;14.20;72.80;;;;;;5010863;28;20107;-69
2023/03/30 13:32:56;;;;;;;0.65;0.20;;;14.30;73.00;;;;;;5012625;28;20045;-69
2023/03/30 13:35:51;;;;;;;2.42;0.43;;;14.20;73.20;;;;;;5010524;28;20049;-70
2023/03/30 13:38:55;;;;;;;1.98;0.43;;;14.20;73.50;;;;;;5014398;28;20042;-69
2023/03/30 13:41:46;;;;;;;1.38;0.40;;;14.20;73.70;;;;;;5011896;28;20100;-69
2023/03/30 13:44:46;;;;;;;0.95;0.30;;;14.20;73.60;;;;;;5012004;28;20053;-69
2023/03/30 13:47:32;;;;;;;0.95;0.30;;;14.10;73.80;;;;;;5013207;28;20042;-68
2023/03/30 13:50:15;;;;;;;0.85;0.20;;;14.00;74.30;;;;;;5013727;28;20411;-69
2023/03/30 13:52:55;;;;;;;3.00;0.65;;;13.90;75.00;;;;;;5010175;28;20056;-69
2023/03/30 13:55:32;;;;;;;3.97;0.93;;;13.80;75.90;;;;;;5010749;28;20128;-68
2023/03/30 13:58:12;;;;;;;3.15;0.80;;;13.70;77.00;;;;;;5014366;28;20061;-70
2023/03/30 14:00:50;;;;;;;5.10;0.80;;;13.50;77.90;;;;;;5008986;28;20077;-69
2023/03/30 14:03:36;;;;;;;3.95;0.82;;;13.40;78.70;;;;;;5012977;28;20057;-68
2023/03/30 14:06:17;;;;;;;1.85;0.70;;;13.50;79.20;;;;;;5015089;28;20053;-69
2023/03/30 14:08:59;;;;;;;2.65;0.57;;;13.60;79.80;;;;;;5013159;28;20045;-70
2023/03/30 14:11:36;;;;;;;1.90;0.57;;;13.70;79.60;;;;;;5007965;28;20066;-69